Time;durP1;ratioP1;P1;durP2;ratioP2;P2;SDS_P1;SDS_P2;PMS_P1;PMS_P2;Temp;Humidity;BMP_temperature;BMP_pressure;BME280_temperature;BME280_humidity;BME280_pressure;Samples;Min_cycle;Max_cycle;Signal;HPM_P1;HPM_P2
2021/06/10 00:00:35;;;;;;;27.17;24.25;;;16.40;87.60;;;;;;4844571;29;20528;-89
2021/06/10 00:03:02;;;;;;;27.98;24.60;;;16.40;87.30;;;;;;4844695;29;20049;-89
2021/06/10 00:05:27;;;;;;;28.58;24.95;;;16.40;87.20;;;;;;4860919;29;20049;-89
2021/06/10 00:07:54;;;;;;;29.73;24.60;;;16.30;87.20;;;;;;4844646;29;20136;-89
2021/06/10 00:10:24;;;;;;;29.95;25.17;;;16.30;87.00;;;;;;4856262;29;20122;-89
2021/06/10 00:12:51;;;;;;;30.00;25.55;;;16.30;87.00;;;;;;4861069;29;20144;-89
2021/06/10 00:15:23;;;;;;;28.67;22.88;;;16.20;87.00;;;;;;4861884;29;20129;-89
2021/06/10 00:17:49;;;;;;;25.13;22.27;;;16.20;86.90;;;;;;4879723;29;20518;-89
2021/06/10 00:20:16;;;;;;;27.05;23.92;;;16.10;86.80;;;;;;4878690;29;20120;-89
2021/06/10 00:22:43;;;;;;;27.38;23.35;;;16.10;87.00;;;;;;4879296;29;20048;-89
2021/06/10 00:25:10;;;;;;;26.13;23.33;;;16.10;87.20;;;;;;4878424;29;20045;-89
2021/06/10 00:27:37;;;;;;;29.20;24.48;;;16.00;87.40;;;;;;4879403;29;20037;-89
2021/06/10 00:30:16;;;;;;;27.88;24.70;;;16.00;87.60;;;;;;4878343;29;20135;-89
2021/06/10 00:32:42;;;;;;;28.02;24.10;;;16.00;87.40;;;;;;4878190;29;20550;-89
2021/06/10 00:35:08;;;;;;;28.27;25.17;;;16.00;87.10;;;;;;4877040;29;20525;-89
2021/06/10 00:37:34;;;;;;;28.98;24.63;;;15.90;87.00;;;;;;4879385;29;20049;-88
2021/06/10 00:40:01;;;;;;;29.25;25.40;;;15.90;87.20;;;;;;4877973;29;20056;-89
2021/06/10 00:42:28;;;;;;;27.15;24.20;;;15.80;87.50;;;;;;4862326;29;20080;-89
2021/06/10 00:44:55;;;;;;;29.13;25.15;;;15.80;87.70;;;;;;4893274;29;20037;-89
2021/06/10 00:47:21;;;;;;;27.27;24.23;;;15.80;88.00;;;;;;4859411;29;20049;-89
2021/06/10 00:49:47;;;;;;;25.10;22.42;;;15.70;87.90;;;;;;4859271;29;20049;-89
2021/06/10 00:52:13;;;;;;;26.17;23.38;;;15.70;87.50;;;;;;4859059;29;20490;-89
2021/06/10 00:54:39;;;;;;;24.77;22.00;;;15.70;87.40;;;;;;4859019;29;20045;-89
2021/06/10 00:57:06;;;;;;;26.05;23.27;;;15.60;87.00;;;;;;4858726;29;20042;-88
2021/06/10 00:59:33;;;;;;;25.90;23.05;;;15.50;87.30;;;;;;4875457;29;20045;-88
2021/06/10 01:02:00;;;;;;;24.23;21.23;;;15.50;87.20;;;;;;4893286;29;20485;-89
2021/06/10 01:04:27;;;;;;;25.77;22.98;;;15.50;86.70;;;;;;4861247;29;20160;-89
2021/06/10 01:07:33;;;;;;;25.98;22.35;;;15.40;86.60;;;;;;4877035;29;20481;-89
2021/06/10 01:10:07;;;;;;;25.98;23.17;;;15.40;87.00;;;;;;4872934;29;20061;-89
2021/06/10 01:12:50;;;;;;;27.75;24.55;;;15.40;86.90;;;;;;4862199;29;20052;-89
2021/06/10 01:15:17;;;;;;;24.52;21.77;;;15.30;87.50;;;;;;4861281;29;20041;-89
2021/06/10 01:17:47;;;;;;;30.48;24.00;;;15.30;87.50;;;;;;4878227;29;20053;-89
2021/06/10 01:20:18;;;;;;;27.45;24.05;;;15.30;87.40;;;;;;4877666;29;20446;-89
2021/06/10 01:22:56;;;;;;;27.70;23.83;;;15.20;87.50;;;;;;4862048;29;20513;-89
2021/06/10 01:25:32;;;;;;;27.20;24.20;;;15.20;87.50;;;;;;4855115;29;20499;-88
2021/06/10 01:28:07;;;;;;;28.20;24.33;;;15.10;87.40;;;;;;4859664;29;20379;-88
2021/06/10 01:30:37;;;;;;;25.40;22.63;;;15.00;87.50;;;;;;4859321;29;20140;-89
2021/06/10 01:33:08;;;;;;;28.17;23.98;;;15.00;87.50;;;;;;4859854;29;20049;-89
2021/06/10 01:35:40;;;;;;;24.88;22.20;;;14.90;87.50;;;;;;4859800;29;20050;-89
2021/06/10 01:38:10;;;;;;;22.70;20.30;;;14.90;87.70;;;;;;4859367;29;20124;-89
2021/06/10 01:40:38;;;;;;;23.98;21.38;;;14.80;87.40;;;;;;4860712;29;20113;-89
2021/06/10 01:43:06;;;;;;;23.63;21.02;;;14.80;87.50;;;;;;4843309;29;20053;-88
2021/06/10 01:45:34;;;;;;;22.38;20.08;;;14.70;87.70;;;;;;4859661;29;20097;-89
2021/06/10 01:48:00;;;;;;;23.05;20.67;;;14.70;88.00;;;;;;4859719;29;20049;-89
2021/06/10 01:50:27;;;;;;;21.40;19.15;;;14.70;88.10;;;;;;4841942;29;20726;-89
2021/06/10 01:52:55;;;;;;;21.58;19.35;;;14.70;87.90;;;;;;4843814;29;20053;-89
2021/06/10 01:55:24;;;;;;;23.25;20.52;;;14.60;87.80;;;;;;4855518;29;20084;-89
2021/06/10 01:57:52;;;;;;;22.15;19.73;;;14.60;88.00;;;;;;4846415;29;20045;-89
2021/06/10 02:00:19;;;;;;;23.80;21.23;;;14.50;87.80;;;;;;4860155;29;20409;-88
2021/06/10 02:02:47;;;;;;;23.08;20.67;;;14.50;87.80;;;;;;4878080;29;20061;-89
2021/06/10 02:05:21;;;;;;;22.73;20.30;;;14.50;88.20;;;;;;4864644;29;20084;-89
2021/06/10 02:07:48;;;;;;;23.20;20.75;;;14.40;88.30;;;;;;4864601;29;20109;-89
2021/06/10 02:10:18;;;;;;;21.95;19.60;;;14.40;88.10;;;;;;4879653;29;20087;-89
2021/06/10 02:12:48;;;;;;;25.95;22.83;;;14.40;87.60;;;;;;4865980;29;20550;-88
2021/06/10 02:15:16;;;;;;;21.60;19.25;;;14.30;87.80;;;;;;4881313;29;20037;-88
2021/06/10 02:17:43;;;;;;;23.80;21.30;;;14.30;88.00;;;;;;4865696;29;20120;-89
2021/06/10 02:20:13;;;;;;;23.33;20.83;;;14.20;87.80;;;;;;4881637;29;20049;-87
2021/06/10 02:22:39;;;;;;;24.50;21.17;;;14.10;87.90;;;;;;4876650;29;20061;-88
2021/06/10 02:25:06;;;;;;;26.88;22.48;;;14.10;87.80;;;;;;4863015;29;20057;-88
2021/06/10 02:27:32;;;;;;;28.30;23.52;;;14.10;87.80;;;;;;4845630;29;20113;-88
2021/06/10 02:29:58;;;;;;;28.83;24.63;;;14.00;88.00;;;;;;4862835;29;20478;-89
2021/06/10 02:32:24;;;;;;;28.58;23.85;;;14.00;90.00;;;;;;4862111;29;20121;-89
2021/06/10 02:34:51;;;;;;;28.05;23.95;;;14.00;90.00;;;;;;4862622;29;20042;-88
2021/06/10 02:37:19;;;;;;;30.02;24.50;;;14.00;90.00;;;;;;4861889;29;20725;-88
2021/06/10 02:39:47;;;;;;;29.50;24.38;;;14.00;90.10;;;;;;4846305;29;20046;-89
2021/06/10 02:42:15;;;;;;;28.23;23.77;;;13.90;90.40;;;;;;4862033;29;20041;-88
2021/06/10 02:44:46;;;;;;;26.20;22.40;;;13.90;90.40;;;;;;4847124;29;20431;-88
2021/06/10 02:47:13;;;;;;;24.10;21.50;;;13.90;90.20;;;;;;4864453;29;20052;-88
2021/06/10 02:49:42;;;;;;;24.90;21.85;;;13.80;89.70;;;;;;4881255;29;20052;-89
2021/06/10 02:52:09;;;;;;;24.90;22.20;;;13.80;89.80;;;;;;4864628;29;20080;-89
2021/06/10 02:54:36;;;;;;;28.13;24.00;;;13.80;89.90;;;;;;4880711;29;20101;-88
2021/06/10 02:57:06;;;;;;;27.45;22.95;;;13.80;90.00;;;;;;4880527;29;20048;-88
2021/06/10 02:59:35;;;;;;;28.70;24.27;;;13.80;90.10;;;;;;4863714;29;20045;-89
2021/06/10 03:02:07;;;;;;;32.63;24.75;;;13.80;90.20;;;;;;4846134;29;20066;-88
2021/06/10 03:04:46;;;;;;;27.60;22.85;;;13.70;90.20;;;;;;4861999;29;20049;-89
2021/06/10 03:07:18;;;;;;;24.73;20.48;;;13.70;90.40;;;;;;4845271;29;20048;-88
2021/06/10 03:09:46;;;;;;;28.42;23.15;;;13.60;90.10;;;;;;4861603;29;20466;-89
2021/06/10 03:12:15;;;;;;;26.45;22.27;;;13.50;89.90;;;;;;4845470;29;20075;-88
2021/06/10 03:14:42;;;;;;;32.72;25.35;;;13.50;90.00;;;;;;4848097;29;20132;-88
2021/06/10 03:17:16;;;;;;;34.42;25.45;;;13.60;90.20;;;;;;4880458;29;20048;-88
2021/06/10 03:19:43;;;;;;;32.70;25.65;;;13.60;90.40;;;;;;4848641;29;20059;-89
2021/06/10 03:22:10;;;;;;;28.58;23.33;;;13.70;90.30;;;;;;4880509;29;20052;-89
2021/06/10 03:24:37;;;;;;;26.05;21.10;;;13.70;90.40;;;;;;4863049;29;20041;-89
2021/06/10 03:27:06;;;;;;;26.27;21.17;;;13.70;90.40;;;;;;4880230;29;20049;-88
2021/06/10 03:29:35;;;;;;;25.25;21.27;;;13.70;90.10;;;;;;4863445;29;20258;-88
2021/06/10 03:32:02;;;;;;;25.35;21.23;;;13.60;89.80;;;;;;4880509;29;20376;-88
2021/06/10 03:34:28;;;;;;;25.10;21.17;;;13.60;89.60;;;;;;4875938;29;20465;-88
2021/06/10 03:36:56;;;;;;;26.40;22.08;;;13.50;89.20;;;;;;4845253;29;20047;-88
2021/06/10 03:39:24;;;;;;;22.45;18.77;;;13.50;89.40;;;;;;4860600;29;20042;-88
2021/06/10 03:41:52;;;;;;;21.50;18.63;;;13.50;89.30;;;;;;4845040;29;20149;-89
2021/06/10 03:44:19;;;;;;;20.58;17.05;;;13.50;89.10;;;;;;4860901;29;20478;-89
2021/06/10 03:46:46;;;;;;;26.67;22.35;;;13.40;88.60;;;;;;4844958;29;20050;-88
2021/06/10 03:49:12;;;;;;;26.13;22.25;;;13.40;88.60;;;;;;4844905;29;20046;-88
2021/06/10 03:51:39;;;;;;;27.20;21.73;;;13.40;89.50;;;;;;4860639;29;20049;-88
2021/06/10 03:54:06;;;;;;;25.65;20.58;;;13.40;89.60;;;;;;4844799;29;20131;-88
2021/06/10 03:56:33;;;;;;;23.50;19.88;;;13.40;89.50;;;;;;4844048;29;20208;-88
2021/06/10 03:58:59;;;;;;;21.65;18.60;;;13.40;89.40;;;;;;4873730;29;20451;-88
2021/06/10 04:01:25;;;;;;;20.83;18.50;;;13.40;89.40;;;;;;4879371;29;20081;-88
2021/06/10 04:03:51;;;;;;;23.48;20.45;;;13.40;89.20;;;;;;4862996;29;20041;-88
2021/06/10 04:06:24;;;;;;;24.08;20.52;;;13.40;89.30;;;;;;4879451;29;20100;-88
2021/06/10 04:08:55;;;;;;;23.65;20.27;;;13.40;89.50;;;;;;4863841;29;20048;-87
2021/06/10 04:11:22;;;;;;;22.88;20.23;;;13.50;89.90;;;;;;4878482;29;20060;-87
2021/06/10 04:13:47;;;;;;;25.02;21.42;;;13.50;89.80;;;;;;4863095;29;20405;-88
2021/06/10 04:16:24;;;;;;;23.92;21.02;;;13.60;90.20;;;;;;4863080;29;20097;-88
2021/06/10 04:18:51;;;;;;;23.10;20.02;;;13.60;90.20;;;;;;4879226;29;20509;-88
2021/06/10 04:21:17;;;;;;;20.83;18.40;;;13.60;90.40;;;;;;4845401;29;20049;-88
2021/06/10 04:23:46;;;;;;;19.08;16.73;;;13.70;89.90;;;;;;4860539;29;20065;-88
2021/06/10 04:26:13;;;;;;;19.13;16.65;;;13.70;89.20;;;;;;4843983;29;20054;-87
2021/06/10 04:28:44;;;;;;;20.60;18.38;;;13.70;88.30;;;;;;4843755;29;20045;-88
2021/06/10 04:31:16;;;;;;;23.42;20.50;;;13.80;88.10;;;;;;4844341;29;20057;-89
2021/06/10 04:33:42;;;;;;;22.92;19.55;;;13.80;88.60;;;;;;4859762;29;20506;-88
2021/06/10 04:36:10;;;;;;;24.90;21.55;;;13.90;88.80;;;;;;4844155;29;20053;-89
2021/06/10 04:38:40;;;;;;;27.38;23.30;;;13.90;88.60;;;;;;4860828;29;20120;-89
2021/06/10 04:41:08;;;;;;;25.33;22.05;;;14.00;89.20;;;;;;4844287;29;20490;-89
2021/06/10 04:43:41;;;;;;;21.75;19.40;;;14.10;89.70;;;;;;4844536;29;20053;-87
2021/06/10 04:46:07;;;;;;;22.55;19.98;;;14.10;89.70;;;;;;4860461;29;20046;-88
2021/06/10 04:48:34;;;;;;;22.17;19.23;;;14.10;89.70;;;;;;4859244;29;20041;-87
2021/06/10 04:51:00;;;;;;;23.08;19.45;;;14.20;89.20;;;;;;4860089;29;20049;-87
2021/06/10 04:53:44;;;;;;;25.90;23.00;;;14.20;88.90;;;;;;4859433;29;20140;-88
2021/06/10 04:56:10;;;;;;;22.25;18.98;;;14.30;89.30;;;;;;4860453;29;20064;-87
2021/06/10 04:58:38;;;;;;;25.80;22.35;;;14.30;89.60;;;;;;4859658;29;20101;-88
2021/06/10 05:01:05;;;;;;;21.38;18.92;;;14.40;89.50;;;;;;4860665;29;20479;-89
2021/06/10 05:03:34;;;;;;;30.50;26.10;;;14.50;90.00;;;;;;4843271;29;20048;-88
2021/06/10 05:06:02;;;;;;;32.80;26.00;;;14.60;90.20;;;;;;4860309;29;20045;-88
2021/06/10 05:08:32;;;;;;;28.20;22.90;;;14.80;91.00;;;;;;4859641;29;20049;-88
2021/06/10 05:11:05;;;;;;;28.05;23.25;;;14.90;91.30;;;;;;4860111;29;20423;-88
2021/06/10 05:13:31;;;;;;;27.55;23.45;;;15.00;91.60;;;;;;4842856;29;20045;-91
2021/06/10 05:15:57;;;;;;;30.45;24.27;;;15.20;91.90;;;;;;4849358;29;20131;-91
2021/06/10 05:18:23;;;;;;;33.50;25.83;;;15.30;91.80;;;;;;4861573;29;20056;-90
2021/06/10 05:20:57;;;;;;;32.55;25.35;;;15.30;92.20;;;;;;4860627;29;20045;-91
2021/06/10 05:23:23;;;;;;;33.63;26.05;;;15.40;93.00;;;;;;4844685;29;20187;-90
2021/06/10 05:25:53;;;;;;;26.23;22.10;;;15.60;92.80;;;;;;4862003;29;20052;-91
2021/06/10 05:28:19;;;;;;;26.90;21.88;;;15.70;92.70;;;;;;4844934;29;20050;-91
2021/06/10 05:30:45;;;;;;;25.95;20.88;;;15.70;92.40;;;;;;4844409;29;20521;-92
2021/06/10 05:33:12;;;;;;;33.83;25.40;;;15.80;92.20;;;;;;4861030;29;20050;-91
2021/06/10 05:35:37;;;;;;;28.90;24.88;;;15.90;92.40;;;;;;4848441;29;20059;-92
2021/06/10 05:38:05;;;;;;;29.70;24.65;;;16.00;92.50;;;;;;4879285;29;20049;-91
2021/06/10 05:40:31;;;;;;;25.25;20.15;;;16.10;92.30;;;;;;4846857;29;20405;-92
2021/06/10 05:42:58;;;;;;;28.38;23.52;;;16.20;91.90;;;;;;4879165;29;20070;-91
2021/06/10 05:45:24;;;;;;;29.98;24.83;;;16.30;91.50;;;;;;4878657;29;20049;-93
2021/06/10 05:47:50;;;;;;;28.20;23.42;;;16.40;91.80;;;;;;4879607;29;20041;-93
2021/06/10 05:50:15;;;;;;;31.73;24.45;;;16.50;91.70;;;;;;4870520;29;20100;-92
2021/06/10 05:52:42;;;;;;;31.20;25.13;;;16.60;92.20;;;;;;4879671;29;20417;-92
2021/06/10 05:55:09;;;;;;;32.58;25.25;;;16.70;92.10;;;;;;4893140;29;20049;-91
2021/06/10 05:57:36;;;;;;;32.75;25.42;;;16.90;92.20;;;;;;4894632;29;20051;-92
2021/06/10 06:00:06;;;;;;;32.00;25.10;;;17.00;92.30;;;;;;4854765;29;20078;-93
2021/06/10 06:02:32;;;;;;;31.58;25.05;;;17.10;92.20;;;;;;4844306;29;20042;-92
2021/06/10 06:05:08;;;;;;;31.42;26.58;;;17.20;92.10;;;;;;4861459;29;20120;-93
2021/06/10 06:07:35;;;;;;;31.42;26.08;;;17.30;91.90;;;;;;4844507;29;20514;-93
2021/06/10 06:10:02;;;;;;;32.10;26.38;;;17.40;92.00;;;;;;4860948;29;20050;-93
2021/06/10 06:12:31;;;;;;;31.23;27.30;;;17.50;91.40;;;;;;4844391;29;20057;-90
2021/06/10 06:14:59;;;;;;;29.52;25.58;;;17.50;91.50;;;;;;4861329;29;20084;-94
2021/06/10 06:17:25;;;;;;;31.70;26.15;;;17.60;91.60;;;;;;4844517;29;20102;-94
2021/06/10 06:19:51;;;;;;;30.27;25.45;;;17.60;91.40;;;;;;4844166;29;20045;-93
2021/06/10 06:22:16;;;;;;;28.88;25.23;;;17.60;91.30;;;;;;4844659;29;20045;-94
2021/06/10 06:24:42;;;;;;;29.60;24.75;;;17.70;91.30;;;;;;4843427;29;20057;-94
2021/06/10 06:27:12;;;;;;;27.83;24.83;;;17.70;91.20;;;;;;4844342;29;20490;-93
2021/06/10 06:29:40;;;;;;;27.67;24.58;;;17.80;90.90;;;;;;4843988;29;20105;-94
2021/06/10 06:32:07;;;;;;;29.38;25.23;;;17.90;90.90;;;;;;4844622;29;20096;-95
2021/06/10 06:34:39;;;;;;;32.03;26.52;;;17.90;90.90;;;;;;4860685;29;20101;-94
2021/06/10 06:37:05;;;;;;;30.15;25.52;;;18.00;90.90;;;;;;4844964;29;20049;-94
2021/06/10 06:39:45;;;;;;;30.23;25.45;;;18.10;90.50;;;;;;4860270;29;20101;-94
2021/06/10 06:42:12;;;;;;;32.22;26.63;;;18.30;90.00;;;;;;4844958;29;20048;-94
2021/06/10 06:44:38;;;;;;;30.77;26.25;;;18.20;90.30;;;;;;4860701;29;20132;-95
2021/06/10 06:47:05;;;;;;;31.95;26.33;;;18.20;90.30;;;;;;4844525;29;20049;-94
2021/06/10 06:49:39;;;;;;;30.83;26.35;;;18.30;90.30;;;;;;4861141;29;20050;-94
2021/06/10 06:52:05;;;;;;;29.55;26.35;;;18.50;90.20;;;;;;4864929;29;20052;-95
2021/06/10 06:54:32;;;;;;;33.05;26.65;;;18.60;90.20;;;;;;4863808;29;20054;-94
2021/06/10 06:56:58;;;;;;;26.98;24.10;;;18.70;89.70;;;;;;4866558;29;20045;-95
2021/06/10 06:59:23;;;;;;;30.25;26.25;;;18.80;88.90;;;;;;4867349;29;20046;-94
2021/06/10 07:01:55;;;;;;;28.80;25.13;;;18.80;88.90;;;;;;4848741;29;20059;-95
2021/06/10 07:04:21;;;;;;;30.02;25.70;;;18.90;87.90;;;;;;4864976;29;20340;-94
2021/06/10 07:06:54;;;;;;;28.80;23.48;;;19.00;88.10;;;;;;4847708;29;20104;-95
2021/06/10 07:09:20;;;;;;;29.08;25.95;;;19.10;87.90;;;;;;4847943;29;20045;-96
2021/06/10 07:11:50;;;;;;;29.15;25.90;;;19.20;87.00;;;;;;4864492;29;20041;-96
2021/06/10 07:14:16;;;;;;;28.17;25.20;;;19.20;87.00;;;;;;4847816;29;20061;-95
2021/06/10 07:16:42;;;;;;;26.90;24.10;;;19.40;87.00;;;;;;4847827;29;20045;-96
2021/06/10 07:19:14;;;;;;;28.77;25.75;;;19.50;84.10;;;;;;4848529;29;20535;-95
2021/06/10 07:21:48;;;;;;;29.27;26.15;;;19.60;83.50;;;;;;4865021;29;20050;-95
2021/06/10 07:24:23;;;;;;;32.33;28.50;;;19.60;84.10;;;;;;4865216;29;20042;-95
2021/06/10 07:26:53;;;;;;;31.75;27.90;;;19.60;84.50;;;;;;4849370;29;20057;-96
2021/06/10 07:29:22;;;;;;;30.83;27.58;;;19.60;83.60;;;;;;4851084;29;20478;-96
2021/06/10 07:31:51;;;;;;;28.60;24.38;;;19.70;82.60;;;;;;4848776;29;20482;-95
2021/06/10 07:34:17;;;;;;;27.95;23.58;;;19.80;82.60;;;;;;4848972;29;20050;-95
2021/06/10 07:36:47;;;;;;;27.33;24.52;;;19.80;82.20;;;;;;4848616;29;20486;-95
2021/06/10 07:39:13;;;;;;;26.10;23.40;;;19.90;83.10;;;;;;4852926;29;20046;-96
2021/06/10 07:41:39;;;;;;;25.63;23.00;;;20.00;83.10;;;;;;4857101;29;20113;-96
2021/06/10 07:44:11;;;;;;;23.42;20.92;;;20.10;82.40;;;;;;4850580;29;20098;-96
2021/06/10 07:46:37;;;;;;;25.50;22.20;;;20.10;82.30;;;;;;4866429;29;20072;-95
2021/06/10 07:49:11;;;;;;;23.55;21.05;;;20.10;81.60;;;;;;4851147;29;20049;-94
2021/06/10 07:51:40;;;;;;;25.70;22.75;;;20.20;81.10;;;;;;4854056;29;20124;-96
2021/06/10 07:56:57;;;;;;;21.70;19.40;;;20.20;81.30;;;;;;4936971;23;20069;-96
2021/06/10 07:59:27;;;;;;;22.55;20.20;;;20.50;79.20;;;;;;4923633;29;20049;-96
2021/06/10 08:02:08;;;;;;;20.95;18.55;;;20.60;79.50;;;;;;4923696;29;20048;-96
2021/06/10 08:04:35;;;;;;;19.83;17.83;;;20.90;79.80;;;;;;4922283;29;20056;-93
2021/06/10 08:07:06;;;;;;;20.98;18.77;;;21.10;75.40;;;;;;4895530;29;20130;-96
2021/06/10 08:09:36;;;;;;;24.58;20.20;;;21.00;75.80;;;;;;4897783;29;20054;-96
2021/06/10 08:12:09;;;;;;;22.33;19.23;;;20.90;77.20;;;;;;4898848;29;20044;-95
2021/06/10 08:14:46;;;;;;;21.60;19.50;;;21.00;77.40;;;;;;4894685;29;20048;-93
2021/06/10 08:17:52;;;;;;;22.15;19.80;;;21.10;76.80;;;;;;4895302;29;20040;-94
2021/06/10 08:20:31;;;;;;;24.10;20.13;;;21.20;77.20;;;;;;4895009;29;20065;-96
2021/06/10 08:23:06;;;;;;;19.63;17.58;;;21.40;77.90;;;;;;4918706;29;20059;-96
2021/06/10 08:26:24;;;;;;;19.92;17.92;;;21.60;77.70;;;;;;4902727;29;20076;-95
2021/06/10 08:28:49;;;;;;;19.70;17.75;;;22.00;76.00;;;;;;4896422;29;20041;-96
2021/06/10 08:31:28;;;;;;;21.23;19.02;;;22.10;74.30;;;;;;4950263;23;20040;-96
2021/06/10 08:34:28;;;;;;;;;;;;;;;;;;;;;
2021/06/10 08:39:39;;;;;;;19.85;17.85;;;22.40;72.60;;;;;;5205904;23;20036;-95
2021/06/10 08:49:09;;;;;;;18.52;16.63;;;22.70;70.50;;;;;;3643499;23;20267;-91
2021/06/10 09:00:52;;;;;;;;;;;;;;;;;;;;;
2021/06/10 09:03:34;;;;;;;17.52;15.73;;;23.50;68.50;;;;;;4884722;29;20119;-96
2021/06/10 09:08:42;;;;;;;15.43;13.93;;;;;;;;;;4903922;23;19924;-96
2021/06/10 09:11:20;;;;;;;14.67;12.40;;;;;;;;;;5087616;23;20085;-95
2021/06/10 09:14:13;;;;;;;13.90;12.02;;;;;;;;;;4915647;23;20060;-96
2021/06/10 09:19:32;;;;;;;12.65;11.35;;;;;;;;;;5129170;23;20049;-95
2021/06/10 09:24:55;;;;;;;14.13;12.73;;;;;;;;;;5036263;23;20321;-96
2021/06/10 10:05:39;;;;;;;10.65;9.55;;;;;;;;;;5201188;23;20317;-95
2021/06/10 10:08:28;;;;;;;11.65;10.55;;;;;;;;;;4876242;29;20035;-96
2021/06/10 10:11:07;;;;;;;12.65;11.35;;;;;;;;;;4875482;29;20053;-96
2021/06/10 10:13:53;;;;;;;13.57;12.23;;;;;;;;;;4876405;29;20085;-91
2021/06/10 10:16:24;;;;;;;13.40;11.65;;;;;;;;;;4887897;29;20044;-91
2021/06/10 10:18:50;;;;;;;9.65;8.55;;;;;;;;;;4876078;29;20496;-90
2021/06/10 10:21:19;;;;;;;9.02;8.13;;;;;;;;;;4879992;29;20059;-91
2021/06/10 10:23:45;;;;;;;10.57;9.48;;;;;;;;;;4882524;29;20052;-90
2021/06/10 10:26:34;;;;;;;10.23;7.97;;;;;;;;;;4884189;29;20139;-91
2021/06/10 10:29:03;;;;;;;9.35;7.47;;;;;;;;;;4902427;29;20157;-91
2021/06/10 10:31:32;;;;;;;13.77;8.10;;;;;;;;;;4879826;29;20127;-91
2021/06/10 10:34:00;;;;;;;9.55;7.40;;;;;;;;;;4894904;29;20052;-91
2021/06/10 10:36:43;;;;;;;13.43;12.02;;;;;;;;;;4866955;29;20055;-90
2021/06/10 10:39:11;;;;;;;13.13;11.73;;;;;;;;;;4900571;29;20051;-93
2021/06/10 10:41:50;;;;;;;8.48;7.53;;;;;;;;;;4902248;29;20048;-90
2021/06/10 10:44:25;;;;;;;9.23;7.38;;;;;;;;;;4885138;29;20477;-90
2021/06/10 10:47:01;;;;;;;9.85;7.00;;;;;;;;;;4882111;29;20044;-90
2021/06/10 10:49:30;;;;;;;8.00;7.13;;;;;;;;;;4901649;29;20036;-91
2021/06/10 10:52:27;;;;;;;7.97;7.18;;;;;;;;;;4884243;29;20517;-91
2021/06/10 10:54:55;;;;;;;9.27;8.20;;;;;;;;;;4897227;29;20561;-91
2021/06/10 10:57:35;;;;;;;12.35;9.30;;;;;;;;;;4884148;29;20053;-90
2021/06/10 11:00:06;;;;;;;10.80;9.70;;;;;;;;;;4898894;29;20101;-90
2021/06/10 11:02:36;;;;;;;11.50;10.05;;;;;;;;;;4869190;29;20397;-90
2021/06/10 11:05:07;;;;;;;11.18;9.80;;;;;;;;;;4876198;29;20392;-89
2021/06/10 11:07:44;;;;;;;10.80;9.57;;;;;;;;;;4898406;29;20056;-89
2021/06/10 11:10:14;;;;;;;10.05;8.98;;;;;;;;;;4874837;29;20111;-89
2021/06/10 11:12:56;;;;;;;9.82;8.38;;;;;;;;;;4894995;29;20541;-89
2021/06/10 11:15:23;;;;;;;9.82;8.82;;;;;;;;;;4885191;29;20041;-91
2021/06/10 11:17:54;;;;;;;10.27;8.07;;;;;;;;;;4899108;29;20571;-89
2021/06/10 11:20:20;;;;;;;9.52;7.50;;;;;;;;;;4900661;29;20068;-90
2021/06/10 11:22:50;;;;;;;7.93;6.30;;;;;;;;;;4898766;29;20434;-90
2021/06/10 11:25:23;;;;;;;7.72;6.65;;;;;;;;;;4883357;29;20097;-90
2021/06/10 11:27:51;;;;;;;10.23;8.90;;;;;;;;;;4887158;29;20052;-91
2021/06/10 11:30:18;;;;;;;9.00;7.85;;;;;;;;;;4899157;29;20124;-91
2021/06/10 11:33:14;;;;;;;5.70;5.10;;;;;;;;;;4899284;29;20466;-91
2021/06/10 11:35:43;;;;;;;6.50;5.63;;;;;;;;;;4898642;29;20053;-91
2021/06/10 11:38:24;;;;;;;7.53;6.70;;;;;;;;;;4897894;29;20063;-91
2021/06/10 11:41:01;;;;;;;10.98;9.85;;;;;;;;;;4899284;29;20476;-90
2021/06/10 11:43:32;;;;;;;12.07;10.88;;;;;;;;;;4898484;29;20048;-90
2021/06/10 11:46:19;;;;;;;13.00;11.68;;;;;;;;;;4898450;29;20044;-91
2021/06/10 11:48:54;;;;;;;14.77;13.32;;;;;;;;;;4883567;29;20068;-91
2021/06/10 11:51:33;;;;;;;12.27;9.18;;;;;;;;;;4898667;29;20048;-91
2021/06/10 11:54:11;;;;;;;8.93;7.40;;;;;;;;;;4897635;29;20048;-91
2021/06/10 11:56:40;;;;;;;8.35;7.25;;;;;;;;;;4899842;29;20048;-90
2021/06/10 11:59:15;;;;;;;8.63;7.32;;;;;;;;;;4883811;29;20041;-90
2021/06/10 12:01:57;;;;;;;10.27;8.10;;;;;;;;;;4879900;29;20053;-91
2021/06/10 12:04:31;;;;;;;7.65;6.95;;;;;;;;;;4880631;29;20408;-91
2021/06/10 12:07:05;;;;;;;10.65;7.38;;;;;;;;;;4876768;29;20088;-90
2021/06/10 12:09:35;;;;;;;6.05;5.32;;;;;;;;;;4879491;29;20045;-91
2021/06/10 12:12:02;;;;;;;4.78;4.35;;;;;;;;;;4878994;29;20537;-91
2021/06/10 12:14:38;;;;;;;7.45;6.32;;;;;;;;;;4898184;29;20345;-91
2021/06/10 12:17:08;;;;;;;9.98;7.22;;;;;;;;;;4898603;29;20156;-90
2021/06/10 12:19:36;;;;;;;8.20;6.13;;;;;;;;;;4882895;29;20082;-91
2021/06/10 12:22:03;;;;;;;6.00;4.53;;;;;;;;;;4899514;29;20044;-92
2021/06/10 12:24:42;;;;;;;8.30;7.03;;;;;;;;;;4897940;29;20043;-91
2021/06/10 12:27:26;;;;;;;11.98;8.82;;;;;;;;;;4899373;29;20552;-92
2021/06/10 12:29:55;;;;;;;10.70;9.65;;;;;;;;;;4897602;29;20083;-90
2021/06/10 12:32:26;;;;;;;10.38;9.27;;;;;;;;;;4897150;29;20048;-92
2021/06/10 12:34:58;;;;;;;10.50;8.15;;;;;;;;;;4898317;29;20118;-92
2021/06/10 12:37:32;;;;;;;10.38;9.27;;;;;;;;;;4898176;29;20063;-91
2021/06/10 12:40:03;;;;;;;9.20;7.90;;;;;;;;;;4885803;29;20077;-91
2021/06/10 12:42:30;;;;;;;7.70;6.13;;;;;;;;;;4879603;29;20045;-93
2021/06/10 12:44:56;;;;;;;10.00;7.95;;;;;;;;;;4880051;29;20045;-90
2021/06/10 12:47:31;;;;;;;9.57;7.47;;;;;;;;;;4878893;29;20100;-93
2021/06/10 12:50:18;;;;;;;8.88;7.97;;;;;;;;;;4879606;29;20045;-92
2021/06/10 12:52:47;;;;;;;9.45;8.45;;;;;;;;;;4887766;29;20044;-93
2021/06/10 12:55:25;;;;;;;9.85;8.43;;;;;;;;;;4886000;29;20055;-93
2021/06/10 12:57:59;;;;;;;10.43;9.15;;;;;;;;;;4898885;29;20387;-93
2021/06/10 13:00:36;;;;;;;11.57;8.02;;;;;;;;;;4889901;29;20041;-91
2021/06/10 13:03:12;;;;;;;9.30;8.32;;;;;;;;;;4877416;29;20057;-92
2021/06/10 13:05:43;;;;;;;11.73;7.97;;;;;;;;;;4895396;29;20104;-92
2021/06/10 13:08:18;;;;;;;9.20;8.30;;;;;;;;;;4881626;29;20045;-92
2021/06/10 13:10:47;;;;;;;10.18;6.65;;;;;;;;;;4882127;29;20044;-94
2021/06/10 13:13:39;;;;;;;9.27;6.60;;;;;;;;;;4854296;29;20087;-92
2021/06/10 13:16:31;;;;;;;8.73;6.88;;;;;;;;;;4851982;29;20537;-93
2021/06/10 13:19:26;;;;;;;9.20;7.47;;;;;;;;;;4848384;29;20049;-91
2021/06/10 13:22:12;;;;;;;9.73;7.05;;;;;;;;;;4863743;29;20132;-92
2021/06/10 13:24:52;;;;;;;7.72;6.30;;;;;;;;;;4888782;29;20451;-94
2021/06/10 13:27:24;;;;;;;8.27;5.80;;;;;;;;;;4893694;29;20041;-92
2021/06/10 13:29:57;;;;;;;8.50;6.10;;;;;;;;;;4883755;29;20400;-93
2021/06/10 13:32:26;;;;;;;7.45;6.68;;;;;;;;;;4897380;29;20104;-92
2021/06/10 13:38:07;;;;;;;7.28;4.80;;;;;;;;;;4827670;29;20128;-92
2021/06/10 13:40:43;;;;;;;6.80;6.05;;;;;;;;;;4825748;29;20054;-93
2021/06/10 13:43:10;;;;;;;8.02;5.70;;;;;;;;;;4824492;29;20072;-94
2021/06/10 13:45:38;;;;;;;4.93;4.18;;;;;;;;;;4825287;29;20049;-95
2021/06/10 13:48:08;;;;;;;7.38;4.63;;;;;;;;;;4839865;29;20073;-95
2021/06/10 13:50:35;;;;;;;6.80;4.60;;;;;;;;;;4840328;29;20313;-93
2021/06/10 13:53:11;;;;;;;5.80;5.15;;;;;;;;;;4839867;29;20425;-95
2021/06/10 13:55:39;;;;;;;6.22;4.85;;;;;;;;;;4817733;29;20074;-94
2021/06/10 13:58:13;;;;;;;4.38;3.97;;;;;;;;;;4806404;29;20570;-95
2021/06/10 14:00:47;;;;;;;6.50;5.88;;;;;;;;;;4822528;29;20046;-94
2021/06/10 14:03:41;;;;;;;8.38;6.70;;;;;;;;;;4808913;29;20055;-94
2021/06/10 14:06:22;;;;;;;8.00;7.20;;;;;;;;;;4810178;29;20124;-93
2021/06/10 14:08:56;;;;;;;8.57;7.20;;;;;;;;;;4836318;29;20058;-94
2021/06/10 14:11:27;;;;;;;8.38;7.25;;;;;;;;;;4817916;29;20057;-93
2021/06/10 14:14:04;;;;;;;11.32;7.03;;;;;;;;;;4853621;29;20064;-92
2021/06/10 14:16:41;;;;;;;8.68;7.22;;;;;;;;;;4893918;29;20045;-94
2021/06/10 14:19:15;;;;;;;8.43;6.30;;;;;;;;;;4896507;29;20533;-94
2021/06/10 14:21:43;;;;;;;10.55;8.00;;;;;;;;;;4866700;28;20096;-91
2021/06/10 14:24:11;;;;;;;9.52;7.60;;;;;;;;;;4824941;29;20062;-93
2021/06/10 14:26:45;;;;;;;11.88;6.70;;;;;;;;;;4738672;29;20780;-93
2021/06/10 14:29:59;;;;;;;7.45;6.25;;;;;;;;;;4991565;27;181959;-91
2021/06/10 14:32:23;;;;;;;6.55;5.93;;;;;;;;;;4936921;28;20052;-92
2021/06/10 14:35:06;;;;;;;8.07;6.63;;;;;;;;;;4960361;27;112843;-89
2021/06/10 14:37:58;;;;;;;6.50;4.75;;;;;;;;;;4918270;28;20133;-90
2021/06/10 14:40:35;;;;;;;7.35;5.47;;;;;;;;;;4893615;28;20055;-92
2021/06/10 14:43:04;;;;;;;7.00;5.55;;;;;;;;;;4877328;29;20057;-92